Time;durP1;ratioP1;P1;durP2;ratioP2;P2;SDS_P1;SDS_P2;PMS_P1;PMS_P2;Temp;Humidity;BMP_temperature;BMP_pressure;BME280_temperature;BME280_humidity;BME280_pressure;Samples;Min_cycle;Max_cycle;Signal;HPM_P1;HPM_P2
2022/12/30 00:00:43;;;;;;;0.60;0.60;;;6.10;99.90;;;;;;4971440;28;20050;-89
2022/12/30 00:03:09;;;;;;;0.60;0.60;;;6.00;99.90;;;;;;4973135;28;20125;-87
2022/12/30 00:05:35;;;;;;;0.70;0.70;;;6.00;99.90;;;;;;4985810;28;20046;-87
2022/12/30 00:08:01;;;;;;;0.60;0.60;;;5.90;99.90;;;;;;4984303;28;20058;-86
2022/12/30 00:10:27;;;;;;;0.50;0.50;;;5.90;99.90;;;;;;4990270;28;20104;-88
2022/12/30 00:34:59;;;;;;;0.50;0.50;;;5.70;99.90;;;;;;4979071;28;20074;-84
2022/12/30 00:37:24;;;;;;;0.60;0.60;;;5.60;99.90;;;;;;4986689;28;20089;-85
2022/12/30 00:39:50;;;;;;;0.50;0.50;;;5.60;99.90;;;;;;4987299;28;20477;-84
2022/12/30 00:45:14;;;;;;;0.52;0.52;;;5.60;99.90;;;;;;4965531;28;20042;-86
2022/12/30 00:47:39;;;;;;;1.05;1.05;;;5.60;99.90;;;;;;4990247;28;20042;-85
2022/12/30 00:58:21;;;;;;;2.47;1.60;;;5.50;99.90;;;;;;4989704;28;20045;-85
2022/12/30 01:00:47;;;;;;;0.73;0.73;;;5.60;99.90;;;;;;4989419;28;20034;-86
2022/12/30 01:03:13;;;;;;;14.88;1.70;;;5.50;99.90;;;;;;4970649;28;20046;-85
2022/12/30 01:05:39;;;;;;;0.43;0.43;;;5.50;99.90;;;;;;4989733;28;20046;-86
2022/12/30 01:08:05;;;;;;;0.60;0.60;;;5.40;99.90;;;;;;4989438;28;20070;-87
2022/12/30 01:10:31;;;;;;;0.52;0.52;;;5.40;99.90;;;;;;4993382;28;20439;-86
2022/12/30 01:12:57;;;;;;;0.52;0.52;;;5.30;99.90;;;;;;4988087;28;20042;-83
2022/12/30 01:15:23;;;;;;;0.82;0.82;;;5.30;99.90;;;;;;5006995;28;20047;-84
2022/12/30 01:17:48;;;;;;;;;;;5.40;99.90;;;;;;4986222;28;20495;-85
2022/12/30 01:20:14;;;;;;;0.50;0.50;;;5.20;99.90;;;;;;5001806;28;19922;-85
2022/12/30 01:22:40;;;;;;;0.47;0.47;;;5.20;99.90;;;;;;4986690;28;20038;-85
2022/12/30 01:25:11;;;;;;;0.43;0.43;;;5.20;99.90;;;;;;4983868;28;20100;-85
2022/12/30 01:27:37;;;;;;;2.17;1.35;;;5.20;99.90;;;;;;4986157;28;20062;-85
2022/12/30 01:30:03;;;;;;;0.57;0.57;;;5.20;99.90;;;;;;4989684;28;20038;-87
2022/12/30 01:32:30;;;;;;;1.42;1.38;;;5.10;99.90;;;;;;5004571;28;20042;-86
2022/12/30 01:34:56;;;;;;;3.20;1.77;;;5.10;99.90;;;;;;4989929;28;20046;-87
2022/12/30 01:37:23;;;;;;;0.45;0.45;;;5.10;99.90;;;;;;4987873;28;20074;-87
2022/12/30 01:39:49;;;;;;;0.60;0.60;;;5.00;99.90;;;;;;4988471;28;20041;-85
2022/12/30 01:42:20;;;;;;;0.60;0.60;;;5.10;99.90;;;;;;4987380;28;20042;-87
2022/12/30 01:44:49;;;;;;;0.40;0.40;;;5.10;99.90;;;;;;4987918;28;20041;-86
2022/12/30 01:47:35;;;;;;;2.92;1.50;;;5.10;99.90;;;;;;4970689;28;20046;-86
2022/12/30 01:50:11;;;;;;;0.60;0.60;;;5.10;99.90;;;;;;4989964;28;20042;-84
2022/12/30 01:53:11;;;;;;;0.47;0.47;;;5.10;99.90;;;;;;4970889;28;20171;-87
2022/12/30 01:55:55;;;;;;;3.22;2.63;;;5.10;99.90;;;;;;4973623;28;20054;-85
2022/12/30 01:58:30;;;;;;;0.60;0.60;;;5.00;99.90;;;;;;4987257;28;20042;-86
2022/12/30 02:00:56;;;;;;;0.52;0.52;;;5.10;99.90;;;;;;4984264;28;20490;-86
2022/12/30 02:03:25;;;;;;;0.60;0.60;;;5.10;99.90;;;;;;4982212;28;20057;-87
2022/12/30 02:05:50;;;;;;;0.50;0.50;;;5.10;99.90;;;;;;4992205;28;20049;-85
2022/12/30 02:08:18;;;;;;;0.70;0.70;;;5.10;99.90;;;;;;4983126;28;20038;-86
2022/12/30 02:10:52;;;;;;;0.43;0.43;;;5.10;99.90;;;;;;4999876;28;20096;-85
2022/12/30 02:13:20;;;;;;;0.57;0.57;;;5.10;99.90;;;;;;5006777;28;20137;-85
2022/12/30 02:16:28;;;;;;;0.50;0.50;;;5.10;99.90;;;;;;4989228;28;20054;-85
2022/12/30 02:19:01;;;;;;;0.68;0.68;;;5.20;99.90;;;;;;4956851;28;20076;-84
2022/12/30 02:21:52;;;;;;;0.50;0.50;;;5.30;99.90;;;;;;4974341;28;20046;-84
2022/12/30 02:24:27;;;;;;;0.45;0.45;;;5.10;99.90;;;;;;5011982;28;20051;-84
2022/12/30 02:26:56;;;;;;;6.93;2.17;;;5.20;99.90;;;;;;5014245;28;20062;-80
2022/12/30 02:29:59;;;;;;;0.50;0.50;;;5.20;99.90;;;;;;4982856;28;20295;-85
2022/12/30 02:32:41;;;;;;;0.40;0.40;;;5.20;99.90;;;;;;5000312;28;20043;-86
2022/12/30 02:35:15;;;;;;;0.50;0.50;;;5.20;99.90;;;;;;4986191;28;20105;-83
2022/12/30 02:38:01;;;;;;;0.50;0.50;;;5.20;99.90;;;;;;4987681;28;20050;-86
2022/12/30 02:46:11;;;;;;;2.45;1.75;;;5.40;99.90;;;;;;4989038;28;20514;-86
2022/12/30 02:48:41;;;;;;;2.65;2.45;;;5.40;99.90;;;;;;4991312;28;20034;-86
2022/12/30 02:53:53;;;;;;;0.50;0.50;;;5.20;99.90;;;;;;4973441;28;20088;-86
2022/12/30 02:56:19;;;;;;;0.70;0.70;;;5.20;99.90;;;;;;4986968;28;20069;-85
2022/12/30 03:03:56;;;;;;;1.08;1.02;;;5.20;99.90;;;;;;4989653;28;20077;-84
2022/12/30 03:05:02;;;;;;;0.50;0.50;;;5.00;99.90;;;;;;4987417;28;20397;-87
2022/12/30 03:07:54;;;;;;;0.47;0.47;;;5.00;99.90;;;;;;4999276;28;20047;-85
2022/12/30 03:13:31;;;;;;;0.60;0.60;;;5.00;99.90;;;;;;4991435;28;20120;-86
2022/12/30 03:16:10;;;;;;;0.50;0.50;;;5.00;99.90;;;;;;4973596;28;20054;-87
2022/12/30 03:18:37;;;;;;;0.60;0.60;;;4.90;99.90;;;;;;5007764;28;20052;-85
2022/12/30 03:21:07;;;;;;;0.50;0.50;;;4.90;99.90;;;;;;4972240;28;20085;-83
2022/12/30 03:29:09;;;;;;;0.50;0.50;;;4.90;99.90;;;;;;4974033;28;20850;-85
2022/12/30 03:31:35;;;;;;;0.57;0.57;;;4.80;99.90;;;;;;4987923;28;20508;-84
2022/12/30 03:34:01;;;;;;;0.50;0.50;;;4.90;99.90;;;;;;4986734;28;20042;-85
2022/12/30 03:36:31;;;;;;;1.27;1.27;;;4.80;99.90;;;;;;4988705;28;20131;-85
2022/12/30 03:39:19;;;;;;;0.50;0.50;;;4.90;99.90;;;;;;4987327;28;20473;-88
2022/12/30 03:41:49;;;;;;;0.50;0.50;;;4.90;99.90;;;;;;4984554;28;20125;-87
2022/12/30 03:44:19;;;;;;;0.50;0.50;;;4.90;99.90;;;;;;4973469;28;20492;-85
2022/12/30 03:46:46;;;;;;;2.20;2.10;;;4.90;99.90;;;;;;4990630;28;20096;-86
2022/12/30 03:49:14;;;;;;;0.43;0.43;;;4.90;99.90;;;;;;4986681;28;20150;-86
2022/12/30 03:51:39;;;;;;;0.55;0.55;;;4.80;99.90;;;;;;4990149;28;20555;-87
2022/12/30 03:54:07;;;;;;;0.70;0.70;;;4.70;99.90;;;;;;4989667;28;20141;-86
2022/12/30 03:56:32;;;;;;;0.40;0.40;;;5.10;99.90;;;;;;4971619;28;20057;-84
2022/12/30 03:58:58;;;;;;;1.08;0.98;;;4.70;99.90;;;;;;4973872;28;20043;-86
2022/12/30 04:01:24;;;;;;;0.70;0.70;;;4.70;99.90;;;;;;5004939;28;20089;-86
2022/12/30 04:03:50;;;;;;;0.98;0.98;;;4.60;99.90;;;;;;4987047;28;20038;-85
2022/12/30 04:06:15;;;;;;;;;;;4.70;99.90;;;;;;4991297;28;20046;-85
2022/12/30 04:08:41;;;;;;;0.55;0.55;;;4.60;99.90;;;;;;4975025;28;20320;-86
2022/12/30 04:11:07;;;;;;;0.82;0.82;;;4.60;99.90;;;;;;4959070;28;20050;-87
2022/12/30 04:13:32;;;;;;;0.60;0.60;;;4.50;99.90;;;;;;4988428;28;20096;-85
2022/12/30 04:15:58;;;;;;;0.80;0.80;;;4.70;99.90;;;;;;5002816;28;20928;-84
2022/12/30 04:18:24;;;;;;;0.60;0.60;;;4.50;99.90;;;;;;4988041;28;20050;-83
2022/12/30 04:20:50;;;;;;;0.88;0.88;;;4.60;99.90;;;;;;4987798;28;20530;-86
2022/12/30 04:23:16;;;;;;;0.50;0.50;;;4.80;99.90;;;;;;4987685;28;20083;-87
2022/12/30 04:25:42;;;;;;;0.60;0.60;;;4.60;99.90;;;;;;4972732;28;20042;-89
2022/12/30 04:28:08;;;;;;;0.60;0.60;;;4.60;99.90;;;;;;4960978;28;20034;-87
2022/12/30 04:30:35;;;;;;;0.60;0.60;;;4.70;99.90;;;;;;4986806;28;20042;-86
2022/12/30 04:33:02;;;;;;;0.57;0.57;;;4.60;99.90;;;;;;5002539;28;20503;-88
2022/12/30 04:35:28;;;;;;;0.63;0.63;;;4.60;99.90;;;;;;4982524;28;20561;-86
2022/12/30 04:37:54;;;;;;;0.57;0.57;;;4.60;99.90;;;;;;4973971;28;20117;-85
2022/12/30 04:40:20;;;;;;;0.57;0.57;;;4.80;99.90;;;;;;4985332;28;20042;-83
2022/12/30 04:42:45;;;;;;;0.50;0.50;;;4.70;99.90;;;;;;4989690;28;20049;-85
2022/12/30 04:45:11;;;;;;;0.50;0.50;;;4.70;99.90;;;;;;4985930;28;20233;-86
2022/12/30 04:47:37;;;;;;;0.60;0.60;;;4.70;99.90;;;;;;4988292;28;20551;-84
2022/12/30 04:50:03;;;;;;;0.40;0.40;;;4.90;99.90;;;;;;4986554;28;20031;-86
2022/12/30 04:52:29;;;;;;;;;;;4.90;99.90;;;;;;4977940;28;20046;-85
2022/12/30 04:54:54;;;;;;;0.60;0.60;;;4.90;99.90;;;;;;4988862;28;20418;-88
2022/12/30 04:57:20;;;;;;;0.57;0.57;;;4.90;99.90;;;;;;4990263;28;20042;-84
2022/12/30 04:59:46;;;;;;;0.65;0.65;;;4.90;99.90;;;;;;4989423;28;20089;-86
2022/12/30 05:02:12;;;;;;;0.75;0.75;;;5.00;99.90;;;;;;4988194;28;20370;-84
2022/12/30 05:04:38;;;;;;;0.57;0.57;;;4.80;99.90;;;;;;4999606;28;20089;-86
2022/12/30 05:07:04;;;;;;;0.50;0.50;;;4.80;99.90;;;;;;4969636;28;20042;-84
2022/12/30 05:09:30;;;;;;;0.70;0.70;;;4.80;99.90;;;;;;4973614;28;20046;-85
2022/12/30 05:11:56;;;;;;;0.55;0.55;;;4.90;99.90;;;;;;4973018;28;20501;-85
2022/12/30 05:14:21;;;;;;;0.80;0.80;;;4.90;99.90;;;;;;4985709;28;20169;-85
2022/12/30 05:16:47;;;;;;;0.60;0.60;;;4.90;99.90;;;;;;4999237;28;20453;-85
2022/12/30 05:19:13;;;;;;;0.65;0.65;;;4.90;99.90;;;;;;4988230;28;20290;-84
2022/12/30 05:21:39;;;;;;;0.43;0.43;;;4.90;99.90;;;;;;4982383;28;20505;-85
2022/12/30 05:26:49;;;;;;;0.75;0.75;;;5.00;99.90;;;;;;4982734;28;20047;-85
2022/12/30 05:29:18;;;;;;;0.60;0.60;;;5.30;99.90;;;;;;4989427;28;20046;-85
2022/12/30 05:31:43;;;;;;;0.60;0.60;;;5.30;99.90;;;;;;4989559;28;20042;-85
2022/12/30 05:34:09;;;;;;;0.60;0.60;;;5.30;99.90;;;;;;4986711;28;20046;-84
2022/12/30 05:36:36;;;;;;;1.58;1.42;;;5.20;99.90;;;;;;4983733;28;20065;-85
2022/12/30 05:39:02;;;;;;;0.60;0.60;;;5.20;99.90;;;;;;4986881;28;20034;-84
2022/12/30 05:41:27;;;;;;;0.60;0.60;;;5.20;99.90;;;;;;4987332;28;20057;-86
2022/12/30 05:43:53;;;;;;;0.52;0.52;;;5.20;99.90;;;;;;4984876;28;21287;-85
2022/12/30 05:46:19;;;;;;;0.57;0.57;;;5.20;99.90;;;;;;4985399;28;20050;-84
2022/12/30 05:48:45;;;;;;;0.40;0.40;;;5.20;99.90;;;;;;4985822;28;20121;-85
2022/12/30 05:51:11;;;;;;;0.93;0.93;;;5.20;99.90;;;;;;4986831;28;20540;-86
2022/12/30 05:53:37;;;;;;;0.70;0.70;;;5.20;99.90;;;;;;4984661;28;20085;-88
2022/12/30 05:56:03;;;;;;;0.60;0.60;;;5.30;99.90;;;;;;4989270;28;20042;-87
2022/12/30 05:58:28;;;;;;;1.25;1.25;;;5.20;99.90;;;;;;4984074;28;20050;-87
2022/12/30 06:00:56;;;;;;;0.60;0.60;;;5.20;99.90;;;;;;4985025;28;20429;-86
2022/12/30 06:03:22;;;;;;;0.70;0.70;;;5.20;99.90;;;;;;4987439;28;20050;-86
2022/12/30 06:05:58;;;;;;;3.28;2.97;;;5.20;99.90;;;;;;4967944;28;20045;-84
2022/12/30 06:08:25;;;;;;;0.40;0.40;;;5.20;99.90;;;;;;4982480;28;20042;-83
2022/12/30 06:10:50;;;;;;;0.40;0.40;;;5.10;99.90;;;;;;4981062;28;20045;-83
2022/12/30 06:13:16;;;;;;;0.65;0.65;;;5.10;99.90;;;;;;4983277;28;20043;-85
2022/12/30 06:15:42;;;;;;;0.95;0.95;;;5.00;99.90;;;;;;4983696;28;20050;-85
2022/12/30 06:18:07;;;;;;;0.70;0.70;;;4.90;99.90;;;;;;4968812;28;20495;-85
2022/12/30 06:20:34;;;;;;;0.70;0.70;;;5.10;99.90;;;;;;4967436;28;20086;-85
2022/12/30 06:23:05;;;;;;;1.00;1.00;;;4.70;99.90;;;;;;4969274;28;20096;-85
2022/12/30 06:25:34;;;;;;;0.80;0.80;;;4.70;99.90;;;;;;4987622;28;20043;-84
2022/12/30 06:28:00;;;;;;;0.40;0.40;;;4.60;99.90;;;;;;4987235;28;20385;-86
2022/12/30 06:30:26;;;;;;;0.63;0.63;;;4.40;99.90;;;;;;4969282;28;20042;-84
2022/12/30 06:32:55;;;;;;;;;;;4.40;99.90;;;;;;4988345;28;20108;-85
2022/12/30 06:35:22;;;;;;;0.60;0.60;;;4.30;99.90;;;;;;4986174;28;19924;-86
2022/12/30 06:37:48;;;;;;;0.70;0.70;;;4.20;99.90;;;;;;4985972;28;20050;-84
2022/12/30 06:40:14;;;;;;;0.55;0.55;;;4.30;99.90;;;;;;4987180;28;20954;-86
2022/12/30 06:42:39;;;;;;;0.68;0.68;;;4.30;99.90;;;;;;4981821;28;20093;-84
2022/12/30 06:45:06;;;;;;;0.70;0.70;;;4.10;99.90;;;;;;4948861;28;20056;-85
2022/12/30 06:47:32;;;;;;;0.60;0.60;;;4.00;99.90;;;;;;5002012;28;20050;-84
2022/12/30 06:49:58;;;;;;;0.60;0.60;;;4.00;99.90;;;;;;4969384;28;20476;-85
2022/12/30 06:52:23;;;;;;;0.60;0.60;;;4.00;99.90;;;;;;4990452;28;20054;-85
2022/12/30 06:54:49;;;;;;;0.50;0.50;;;4.10;99.90;;;;;;4981879;28;20058;-84
2022/12/30 06:57:15;;;;;;;0.57;0.57;;;4.10;99.90;;;;;;4985552;28;20034;-84
2022/12/30 06:59:40;;;;;;;0.70;0.70;;;4.10;99.90;;;;;;4970854;28;20053;-84
2022/12/30 07:02:06;;;;;;;0.68;0.68;;;4.00;99.90;;;;;;4969159;28;20076;-84
2022/12/30 07:04:32;;;;;;;0.60;0.60;;;4.00;99.90;;;;;;4975102;28;20070;-86
2022/12/30 07:06:58;;;;;;;0.60;0.60;;;4.10;99.90;;;;;;4986358;28;20116;-86
2022/12/30 07:09:23;;;;;;;0.95;0.95;;;4.10;99.90;;;;;;4986860;28;20116;-86
2022/12/30 07:11:49;;;;;;;1.25;1.25;;;4.10;99.90;;;;;;4985750;28;20050;-85
2022/12/30 07:14:15;;;;;;;0.70;0.70;;;5.20;99.90;;;;;;4982376;28;21174;-87
2022/12/30 07:16:41;;;;;;;0.60;0.60;;;4.10;99.90;;;;;;4970090;28;20106;-85
2022/12/30 07:19:06;;;;;;;0.70;0.70;;;4.00;99.90;;;;;;4968292;28;20042;-85
2022/12/30 07:21:32;;;;;;;0.40;0.40;;;4.00;99.90;;;;;;4987188;28;20065;-87
2022/12/30 07:23:58;;;;;;;0.57;0.57;;;4.00;99.90;;;;;;4985471;28;20038;-85
2022/12/30 07:26:24;;;;;;;0.60;0.60;;;4.10;99.90;;;;;;4984972;28;20046;-84
2022/12/30 07:28:53;;;;;;;0.63;0.63;;;4.00;99.90;;;;;;4979739;28;20038;-84
2022/12/30 07:31:19;;;;;;;0.60;0.60;;;4.00;99.90;;;;;;4983486;28;20045;-84
2022/12/30 07:33:45;;;;;;;0.57;0.57;;;3.90;99.90;;;;;;4986201;28;20035;-83
2022/12/30 07:36:10;;;;;;;0.70;0.70;;;4.00;99.90;;;;;;4969686;28;20469;-84
2022/12/30 07:38:36;;;;;;;0.70;0.70;;;4.00;99.90;;;;;;4987524;28;20042;-81
2022/12/30 07:41:02;;;;;;;0.68;0.68;;;3.90;99.90;;;;;;4987827;28;20046;-83
2022/12/30 07:43:27;;;;;;;4.75;4.35;;;3.90;99.90;;;;;;4991066;28;20053;-85
2022/12/30 07:46:07;;;;;;;0.70;0.70;;;4.00;99.90;;;;;;4993571;28;20065;-82
2022/12/30 07:48:34;;;;;;;0.50;0.50;;;4.00;99.90;;;;;;4976560;28;20077;-85
2022/12/30 07:51:10;;;;;;;;;;;4.00;99.90;;;;;;4988409;28;20358;-85
2022/12/30 07:53:36;;;;;;;0.70;0.70;;;3.90;99.90;;;;;;4969758;28;19931;-84
2022/12/30 07:56:07;;;;;;;0.50;0.50;;;3.90;99.90;;;;;;4966042;28;20047;-85
2022/12/30 07:58:33;;;;;;;0.47;0.47;;;3.90;99.90;;;;;;4974456;28;20050;-83
2022/12/30 08:01:17;;;;;;;0.70;0.70;;;3.90;99.90;;;;;;5007001;28;20038;-84
2022/12/30 08:03:43;;;;;;;0.60;0.60;;;4.10;99.90;;;;;;4959169;28;21554;-84
2022/12/30 08:06:16;;;;;;;0.60;0.60;;;3.90;99.90;;;;;;4973746;28;20137;-85
2022/12/30 08:08:42;;;;;;;0.70;0.70;;;3.90;99.90;;;;;;4994363;28;20053;-83
2022/12/30 08:11:09;;;;;;;0.65;0.65;;;3.90;99.90;;;;;;4995369;28;20047;-85
2022/12/30 08:13:38;;;;;;;1.52;1.42;;;4.60;99.90;;;;;;4984254;28;20045;-85
2022/12/30 08:16:15;;;;;;;0.63;0.63;;;3.90;99.90;;;;;;4984395;28;20454;-85
2022/12/30 08:18:42;;;;;;;0.65;0.65;;;4.00;99.90;;;;;;4985894;28;20043;-85
2022/12/30 08:21:12;;;;;;;1.85;1.85;;;4.10;99.90;;;;;;4990607;28;20361;-86
2022/12/30 08:23:38;;;;;;;0.60;0.60;;;4.10;99.90;;;;;;4976616;28;20042;-88
2022/12/30 08:26:14;;;;;;;0.70;0.70;;;4.10;99.90;;;;;;4991817;28;20519;-88
2022/12/30 08:28:40;;;;;;;0.60;0.60;;;4.20;99.90;;;;;;4991290;28;20130;-86
2022/12/30 08:31:07;;;;;;;;;;;4.20;99.90;;;;;;4994625;28;20089;-86
2022/12/30 08:33:33;;;;;;;0.50;0.50;;;4.20;99.90;;;;;;4987525;28;19918;-85
2022/12/30 08:36:00;;;;;;;;;;;4.20;99.90;;;;;;4989531;28;20046;-84
2022/12/30 08:38:25;;;;;;;1.52;0.98;;;4.20;99.90;;;;;;4986679;28;20375;-87
2022/12/30 08:40:51;;;;;;;0.57;0.57;;;4.30;99.90;;;;;;4957139;28;20064;-84
2022/12/30 08:43:18;;;;;;;0.50;0.50;;;4.30;99.90;;;;;;4988030;28;20482;-89
2022/12/30 08:45:44;;;;;;;0.52;0.52;;;4.60;99.90;;;;;;4972985;28;20054;-85
2022/12/30 08:48:10;;;;;;;0.60;0.60;;;4.60;99.90;;;;;;4988852;28;20053;-87
2022/12/30 08:50:36;;;;;;;0.63;0.63;;;4.50;99.90;;;;;;4991190;28;20113;-85
2022/12/30 08:53:02;;;;;;;0.60;0.60;;;4.40;99.90;;;;;;4986147;28;20423;-85
2022/12/30 08:55:28;;;;;;;0.50;0.50;;;4.40;99.90;;;;;;4989741;28;20046;-84
2022/12/30 08:57:53;;;;;;;0.70;0.70;;;4.40;99.90;;;;;;4993583;28;20046;-85
2022/12/30 09:00:19;;;;;;;0.70;0.70;;;5.10;99.90;;;;;;4993230;28;20065;-83
2022/12/30 09:02:45;;;;;;;0.60;0.60;;;4.50;99.90;;;;;;5002600;28;20101;-86
2022/12/30 09:05:10;;;;;;;0.52;0.52;;;4.60;99.90;;;;;;4987635;28;20042;-85
2022/12/30 09:07:36;;;;;;;0.60;0.60;;;4.60;99.90;;;;;;4988215;28;20174;-85
2022/12/30 09:10:02;;;;;;;;;;;4.60;99.90;;;;;;4986502;28;20054;-86
2022/12/30 09:12:28;;;;;;;1.45;1.35;;;4.70;99.90;;;;;;4968472;28;19937;-84
2022/12/30 09:14:54;;;;;;;0.63;0.63;;;4.70;99.90;;;;;;4985414;28;20058;-86
2022/12/30 09:17:19;;;;;;;0.52;0.52;;;4.70;99.90;;;;;;4986368;28;20093;-85
2022/12/30 09:19:45;;;;;;;0.55;0.55;;;4.80;99.90;;;;;;4965640;28;20047;-85
2022/12/30 09:22:11;;;;;;;0.60;0.60;;;4.80;99.90;;;;;;4966353;28;20089;-85
2022/12/30 09:24:36;;;;;;;0.60;0.60;;;5.60;99.90;;;;;;4985494;28;20428;-85
2022/12/30 09:27:02;;;;;;;0.60;0.60;;;4.90;99.90;;;;;;4986402;28;20046;-84
2022/12/30 09:29:28;;;;;;;0.60;0.60;;;4.90;99.90;;;;;;4969873;28;20046;-85
2022/12/30 09:31:53;;;;;;;0.60;0.60;;;4.90;99.90;;;;;;4985195;28;20046;-85
2022/12/30 09:34:19;;;;;;;0.52;0.52;;;4.90;99.90;;;;;;4988982;28;20432;-86
2022/12/30 09:36:45;;;;;;;0.50;0.50;;;4.90;99.90;;;;;;4985279;28;20404;-85
2022/12/30 09:39:12;;;;;;;1.25;1.25;;;5.00;99.90;;;;;;4987584;28;20092;-86
2022/12/30 09:45:23;;;;;;;0.70;0.70;;;4.90;99.90;;;;;;4978629;28;20038;-86
2022/12/30 09:47:56;;;;;;;0.50;0.50;;;5.00;99.90;;;;;;4993003;28;20270;-85
2022/12/30 09:50:42;;;;;;;0.65;0.65;;;5.10;99.90;;;;;;4991844;28;20046;-85
2022/12/30 09:53:25;;;;;;;0.60;0.60;;;5.00;99.90;;;;;;4990255;28;20113;-86
2022/12/30 09:55:59;;;;;;;0.60;0.60;;;5.10;99.90;;;;;;4989750;28;20042;-84
2022/12/30 09:58:35;;;;;;;0.50;0.50;;;5.10;99.90;;;;;;4991158;28;20051;-84
2022/12/30 10:01:35;;;;;;;0.50;0.50;;;5.10;99.90;;;;;;4989262;28;20042;-84
2022/12/30 10:04:01;;;;;;;0.80;0.80;;;5.20;99.90;;;;;;4988325;28;20395;-84
2022/12/30 10:06:40;;;;;;;0.50;0.50;;;5.20;99.90;;;;;;4990545;28;20096;-84
2022/12/30 10:09:23;;;;;;;0.60;0.60;;;5.20;99.90;;;;;;4985561;28;20042;-87
2022/12/30 10:12:07;;;;;;;0.80;0.80;;;5.30;99.90;;;;;;4984594;28;20105;-84
2022/12/30 10:14:59;;;;;;;0.50;0.50;;;5.40;99.90;;;;;;4981857;28;20066;-84
2022/12/30 10:17:53;;;;;;;0.50;0.50;;;5.40;99.90;;;;;;4978328;28;20042;-83
2022/12/30 10:20:38;;;;;;;0.50;0.50;;;5.50;99.90;;;;;;4981862;28;20880;-82
2022/12/30 10:23:13;;;;;;;0.50;0.50;;;5.50;99.90;;;;;;4962678;28;20108;-84
2022/12/30 10:25:42;;;;;;;0.60;0.60;;;5.60;99.90;;;;;;4981740;28;20058;-83
2022/12/30 10:28:13;;;;;;;0.60;0.60;;;5.60;99.90;;;;;;4981204;28;20496;-84
2022/12/30 10:30:45;;;;;;;0.80;0.80;;;5.60;99.90;;;;;;4980944;28;20038;-82
2022/12/30 10:33:21;;;;;;;0.60;0.60;;;5.70;99.90;;;;;;4996773;28;20448;-83
2022/12/30 10:36:16;;;;;;;0.60;0.60;;;5.70;99.90;;;;;;4981269;28;20042;-83
2022/12/30 10:38:42;;;;;;;1.35;1.25;;;5.80;99.90;;;;;;4962911;28;20086;-82
2022/12/30 10:41:26;;;;;;;0.68;0.68;;;5.90;99.90;;;;;;4999051;28;20508;-83
2022/12/30 10:44:21;;;;;;;0.50;0.50;;;6.00;99.90;;;;;;4980699;28;20082;-82
2022/12/30 10:47:13;;;;;;;0.60;0.60;;;6.00;99.90;;;;;;4979521;28;20074;-84
2022/12/30 10:50:02;;;;;;;0.52;0.52;;;6.00;99.90;;;;;;4978759;28;20147;-82
2022/12/30 10:52:28;;;;;;;0.50;0.50;;;6.10;99.90;;;;;;4980283;28;20739;-82
2022/12/30 10:54:53;;;;;;;0.57;0.57;;;6.10;99.90;;;;;;4985614;28;20061;-83
2022/12/30 10:57:33;;;;;;;0.60;0.60;;;6.20;99.90;;;;;;5006347;28;20050;-83
2022/12/30 11:00:00;;;;;;;0.50;0.50;;;6.20;99.90;;;;;;4997931;28;20058;-83
2022/12/30 11:02:33;;;;;;;0.50;0.50;;;6.30;99.90;;;;;;4983092;28;20065;-83
2022/12/30 11:05:02;;;;;;;0.40;0.40;;;6.30;99.90;;;;;;4979860;28;20057;-83
2022/12/30 11:07:28;;;;;;;0.60;0.60;;;6.40;99.90;;;;;;4965900;28;20097;-84
2022/12/30 11:10:14;;;;;;;0.50;0.50;;;6.50;99.90;;;;;;4978845;28;20459;-83
2022/12/30 11:15:24;;;;;;;0.50;0.50;;;6.50;99.90;;;;;;4983445;28;20047;-84
2022/12/30 11:17:53;;;;;;;0.60;0.60;;;6.40;99.90;;;;;;4982082;28;20456;-84
2022/12/30 11:20:20;;;;;;;0.50;0.50;;;6.50;99.90;;;;;;4980975;28;20045;-83
2022/12/30 11:22:51;;;;;;;0.60;0.60;;;6.40;99.90;;;;;;4979312;28;20046;-84
2022/12/30 11:25:30;;;;;;;0.47;0.47;;;6.40;99.90;;;;;;4957690;28;20081;-83
2022/12/30 11:28:02;;;;;;;0.60;0.60;;;6.50;99.90;;;;;;4983141;28;20126;-85
2022/12/30 11:30:30;;;;;;;0.90;0.90;;;6.50;99.90;;;;;;4981770;28;20164;-83
2022/12/30 11:32:59;;;;;;;0.50;0.50;;;6.50;99.90;;;;;;4988855;28;20046;-83
2022/12/30 11:35:39;;;;;;;0.50;0.50;;;6.60;99.90;;;;;;4989405;28;20499;-84
2022/12/30 11:38:27;;;;;;;0.50;0.50;;;6.70;99.90;;;;;;4988646;28;20096;-83
2022/12/30 11:40:53;;;;;;;1.20;1.20;;;6.80;99.90;;;;;;4999122;28;20046;-83
2022/12/30 11:43:20;;;;;;;1.10;1.10;;;6.80;99.90;;;;;;4990748;28;20065;-83
2022/12/30 11:46:14;;;;;;;0.40;0.40;;;6.90;99.90;;;;;;4973832;28;20042;-82
2022/12/30 11:49:03;;;;;;;0.50;0.50;;;6.90;99.90;;;;;;4989410;28;20497;-84
2022/12/30 11:51:32;;;;;;;0.57;0.57;;;6.90;99.90;;;;;;4994046;28;20074;-84
2022/12/30 11:54:09;;;;;;;0.43;0.43;;;7.00;99.90;;;;;;4974733;28;20057;-85
2022/12/30 11:56:53;;;;;;;0.57;0.57;;;7.00;99.90;;;;;;4985954;28;20803;-83
2022/12/30 11:59:27;;;;;;;0.50;0.50;;;7.00;99.90;;;;;;4991730;28;20092;-84
2022/12/30 12:01:56;;;;;;;0.50;0.50;;;7.00;99.90;;;;;;4988358;28;20038;-82
2022/12/30 12:04:40;;;;;;;0.40;0.40;;;7.10;99.90;;;;;;4990781;28;20102;-84
2022/12/30 12:07:20;;;;;;;0.50;0.50;;;7.10;99.90;;;;;;4987353;28;20054;-85
2022/12/30 12:09:46;;;;;;;0.68;0.68;;;7.20;99.90;;;;;;4987236;28;20505;-83
2022/12/30 12:12:14;;;;;;;0.50;0.50;;;7.30;99.90;;;;;;4988990;28;20053;-84
2022/12/30 12:15:03;;;;;;;0.50;0.50;;;7.30;99.90;;;;;;4987875;28;20054;-83
2022/12/30 12:17:52;;;;;;;0.50;0.50;;;7.30;99.90;;;;;;4968344;28;20048;-84
2022/12/30 12:20:40;;;;;;;0.50;0.50;;;7.40;99.90;;;;;;4987656;28;20130;-84
2022/12/30 12:23:06;;;;;;;0.40;0.40;;;7.40;99.90;;;;;;4986788;28;20050;-82
2022/12/30 12:25:40;;;;;;;0.40;0.40;;;7.30;99.90;;;;;;4970860;28;20072;-83
2022/12/30 12:28:10;;;;;;;0.40;0.40;;;7.40;99.90;;;;;;4988646;28;20046;-83
2022/12/30 12:30:51;;;;;;;0.60;0.60;;;7.40;99.90;;;;;;4986444;28;20046;-84
2022/12/30 12:33:37;;;;;;;0.65;0.65;;;7.40;99.90;;;;;;4986398;28;20125;-84
2022/12/30 12:36:12;;;;;;;0.50;0.50;;;7.50;99.90;;;;;;4967542;28;20061;-84
2022/12/30 12:38:37;;;;;;;0.47;0.47;;;7.50;99.90;;;;;;4989220;28;20038;-82
2022/12/30 12:41:16;;;;;;;0.50;0.50;;;7.50;99.90;;;;;;4986011;28;20052;-82
2022/12/30 12:44:08;;;;;;;0.50;0.50;;;7.50;99.90;;;;;;4991773;28;20258;-82
2022/12/30 12:46:42;;;;;;;0.50;0.50;;;7.60;99.90;;;;;;4985685;28;20125;-83
2022/12/30 12:49:20;;;;;;;0.60;0.60;;;7.60;99.90;;;;;;4990616;28;20038;-82
2022/12/30 12:52:15;;;;;;;0.47;0.47;;;7.60;99.90;;;;;;4991736;28;20054;-83
2022/12/30 12:55:09;;;;;;;0.50;0.50;;;7.60;99.90;;;;;;5001778;28;20770;-83
2022/12/30 12:57:49;;;;;;;0.60;0.60;;;7.70;99.90;;;;;;4986662;28;20052;-83
2022/12/30 13:00:18;;;;;;;0.60;0.60;;;7.70;99.90;;;;;;4986266;28;20077;-83
2022/12/30 13:03:13;;;;;;;0.50;0.50;;;7.70;99.90;;;;;;4972748;28;20042;-82
2022/12/30 13:05:48;;;;;;;0.60;0.60;;;7.70;99.90;;;;;;4988228;28;21418;-84
2022/12/30 13:08:45;;;;;;;0.40;0.40;;;7.70;99.90;;;;;;4987967;28;20164;-83
2022/12/30 13:11:21;;;;;;;0.38;0.38;;;7.80;99.90;;;;;;4978505;28;20046;-84
2022/12/30 13:13:51;;;;;;;0.90;0.90;;;7.80;99.90;;;;;;4990459;28;20049;-80
2022/12/30 13:16:21;;;;;;;0.52;0.52;;;7.80;99.90;;;;;;5000522;28;20051;-83
2022/12/30 13:18:50;;;;;;;0.68;0.68;;;7.80;99.90;;;;;;4986276;28;20046;-84
2022/12/30 13:21:22;;;;;;;0.60;0.60;;;7.80;99.90;;;;;;4988524;28;20060;-82
2022/12/30 13:23:52;;;;;;;0.43;0.43;;;7.80;99.90;;;;;;5002485;28;20041;-84
2022/12/30 13:26:22;;;;;;;0.40;0.40;;;7.80;99.90;;;;;;4971125;28;20125;-84
2022/12/30 13:28:52;;;;;;;0.50;0.50;;;7.90;99.90;;;;;;4984311;28;20400;-84
2022/12/30 13:31:58;;;;;;;0.63;0.63;;;7.90;99.90;;;;;;4988830;28;20046;-85
2022/12/30 13:34:57;;;;;;;0.40;0.40;;;7.90;99.90;;;;;;4991329;28;20051;-83
2022/12/30 13:37:35;;;;;;;0.50;0.50;;;8.10;99.90;;;;;;4983006;28;20065;-82
2022/12/30 13:40:14;;;;;;;0.50;0.50;;;8.00;99.90;;;;;;4988600;28;20034;-83
2022/12/30 13:42:56;;;;;;;0.45;0.45;;;8.10;99.90;;;;;;4989737;28;20488;-83
2022/12/30 13:45:29;;;;;;;0.55;0.55;;;8.10;99.90;;;;;;4987505;28;20066;-82
2022/12/30 13:48:04;;;;;;;0.55;0.55;;;8.10;99.90;;;;;;4999562;28;20054;-82
2022/12/30 13:50:33;;;;;;;0.40;0.40;;;8.20;99.90;;;;;;4988670;28;20056;-84
2022/12/30 13:53:01;;;;;;;0.60;0.60;;;8.20;99.90;;;;;;5001342;28;20563;-83
2022/12/30 13:55:36;;;;;;;0.68;0.68;;;8.20;99.90;;;;;;4984089;28;20097;-85
2022/12/30 13:58:05;;;;;;;1.30;0.85;;;8.30;99.90;;;;;;4986844;28;20125;-84
2022/12/30 14:00:38;;;;;;;0.40;0.40;;;8.40;99.90;;;;;;4985770;28;20729;-83
2022/12/30 14:03:09;;;;;;;0.47;0.47;;;8.40;99.90;;;;;;4990394;28;20046;-84
2022/12/30 14:05:38;;;;;;;0.55;0.55;;;8.40;99.90;;;;;;4989393;28;20042;-82
2022/12/30 14:08:34;;;;;;;0.52;0.52;;;8.40;99.90;;;;;;4986425;28;20043;-84
2022/12/30 14:11:01;;;;;;;0.50;0.50;;;8.40;99.90;;;;;;4977660;28;20072;-83
2022/12/30 14:13:27;;;;;;;0.50;0.50;;;8.40;99.90;;;;;;4985990;28;20038;-83
2022/12/30 14:15:58;;;;;;;0.40;0.40;;;8.50;99.90;;;;;;4989905;28;20073;-83
2022/12/30 14:18:35;;;;;;;0.40;0.40;;;8.50;99.90;;;;;;4984604;28;20112;-82
2022/12/30 14:21:06;;;;;;;0.50;0.50;;;8.50;99.90;;;;;;4987769;28;20148;-84
2022/12/30 14:23:37;;;;;;;0.50;0.50;;;8.50;99.90;;;;;;5002012;28;20111;-82